sensor_id;sensor_type;location;lat;lon;timestamp;P1;durP1;ratioP1;P2;durP2;ratioP2
11616;SDS011;5864;52.998;9.068;2023-05-15T00:01:39;4.50;;;4.10;;
11616;SDS011;5864;52.998;9.068;2023-05-15T00:04:25;5.97;;;4.13;;
11616;SDS011;5864;52.998;9.068;2023-05-15T00:07:12;6.23;;;3.67;;
11616;SDS011;5864;52.998;9.068;2023-05-15T00:09:57;5.57;;;4.60;;
11616;SDS011;5864;52.998;9.068;2023-05-15T00:12:43;4.50;;;4.10;;
11616;SDS011;5864;52.998;9.068;2023-05-15T00:15:28;4.97;;;4.00;;
11616;SDS011;5864;52.998;9.068;2023-05-15T00:18:14;5.00;;;4.27;;
11616;SDS011;5864;52.998;9.068;2023-05-15T00:21:00;6.37;;;4.70;;
11616;SDS011;5864;52.998;9.068;2023-05-15T00:23:47;4.80;;;4.30;;
11616;SDS011;5864;52.998;9.068;2023-05-15T00:26:32;5.33;;;4.57;;
11616;SDS011;5864;52.998;9.068;2023-05-15T00:29:18;5.80;;;4.60;;
11616;SDS011;5864;52.998;9.068;2023-05-15T00:32:04;6.30;;;4.40;;
11616;SDS011;5864;52.998;9.068;2023-05-15T00:34:50;7.60;;;4.30;;
11616;SDS011;5864;52.998;9.068;2023-05-15T00:37:35;5.23;;;4.73;;
11616;SDS011;5864;52.998;9.068;2023-05-15T00:40:23;5.33;;;4.80;;
11616;SDS011;5864;52.998;9.068;2023-05-15T00:43:09;5.87;;;5.30;;
11616;SDS011;5864;52.998;9.068;2023-05-15T00:45:55;4.80;;;4.30;;
11616;SDS011;5864;52.998;9.068;2023-05-15T00:48:43;5.47;;;4.97;;
11616;SDS011;5864;52.998;9.068;2023-05-15T00:51:29;6.63;;;4.63;;
11616;SDS011;5864;52.998;9.068;2023-05-15T00:54:14;5.90;;;4.40;;
11616;SDS011;5864;52.998;9.068;2023-05-15T00:57:01;5.13;;;4.63;;
11616;SDS011;5864;52.998;9.068;2023-05-15T00:59:50;6.03;;;4.87;;
11616;SDS011;5864;52.998;9.068;2023-05-15T01:02:36;5.87;;;5.27;;
11616;SDS011;5864;52.998;9.068;2023-05-15T01:05:22;7.43;;;4.90;;
11616;SDS011;5864;52.998;9.068;2023-05-15T01:08:11;6.70;;;5.13;;
11616;SDS011;5864;52.998;9.068;2023-05-15T01:11:06;8.93;;;5.40;;
11616;SDS011;5864;52.998;9.068;2023-05-15T01:13:54;6.07;;;5.30;;
11616;SDS011;5864;52.998;9.068;2023-05-15T01:16:39;5.83;;;5.17;;
11616;SDS011;5864;52.998;9.068;2023-05-15T01:19:25;7.20;;;5.37;;
11616;SDS011;5864;52.998;9.068;2023-05-15T01:22:17;5.30;;;4.80;;
11616;SDS011;5864;52.998;9.068;2023-05-15T01:28:54;6.30;;;5.60;;
11616;SDS011;5864;52.998;9.068;2023-05-15T01:31:46;6.30;;;5.30;;
11616;SDS011;5864;52.998;9.068;2023-05-15T01:34:41;6.73;;;5.37;;
11616;SDS011;5864;52.998;9.068;2023-05-15T01:37:30;6.50;;;5.00;;
11616;SDS011;5864;52.998;9.068;2023-05-15T01:40:17;6.00;;;5.13;;
11616;SDS011;5864;52.998;9.068;2023-05-15T01:43:07;6.67;;;5.37;;
11616;SDS011;5864;52.998;9.068;2023-05-15T01:45:57;6.37;;;5.40;;
11616;SDS011;5864;52.998;9.068;2023-05-15T01:48:42;5.70;;;5.17;;
11616;SDS011;5864;52.998;9.068;2023-05-15T01:51:29;5.77;;;5.17;;
11616;SDS011;5864;52.998;9.068;2023-05-15T01:54:16;8.00;;;6.00;;
11616;SDS011;5864;52.998;9.068;2023-05-15T01:57:03;6.63;;;5.70;;
11616;SDS011;5864;52.998;9.068;2023-05-15T01:59:50;5.50;;;4.97;;
11616;SDS011;5864;52.998;9.068;2023-05-15T02:02:38;5.80;;;5.20;;
11616;SDS011;5864;52.998;9.068;2023-05-15T02:05:24;6.60;;;5.47;;
11616;SDS011;5864;52.998;9.068;2023-05-15T02:08:11;10.00;;;5.60;;
11616;SDS011;5864;52.998;9.068;2023-05-15T02:10:58;6.60;;;5.47;;
11616;SDS011;5864;52.998;9.068;2023-05-15T02:13:44;5.60;;;5.03;;
11616;SDS011;5864;52.998;9.068;2023-05-15T02:16:30;6.43;;;5.13;;
11616;SDS011;5864;52.998;9.068;2023-05-15T02:19:17;7.13;;;5.93;;
11616;SDS011;5864;52.998;9.068;2023-05-15T02:22:03;6.40;;;5.63;;
11616;SDS011;5864;52.998;9.068;2023-05-15T02:24:49;8.47;;;5.97;;
11616;SDS011;5864;52.998;9.068;2023-05-15T02:27:37;8.37;;;6.30;;
11616;SDS011;5864;52.998;9.068;2023-05-15T02:30:33;7.23;;;6.00;;
11616;SDS011;5864;52.998;9.068;2023-05-15T02:33:22;6.77;;;6.13;;
11616;SDS011;5864;52.998;9.068;2023-05-15T02:36:16;7.03;;;6.00;;
11616;SDS011;5864;52.998;9.068;2023-05-15T02:39:06;6.60;;;5.90;;
11616;SDS011;5864;52.998;9.068;2023-05-15T02:41:54;6.33;;;5.73;;
11616;SDS011;5864;52.998;9.068;2023-05-15T02:44:41;9.53;;;6.50;;
11616;SDS011;5864;52.998;9.068;2023-05-15T02:47:27;7.37;;;6.47;;
11616;SDS011;5864;52.998;9.068;2023-05-15T02:50:14;7.30;;;6.60;;
11616;SDS011;5864;52.998;9.068;2023-05-15T02:53:02;7.33;;;6.33;;
11616;SDS011;5864;52.998;9.068;2023-05-15T02:55:48;7.07;;;6.20;;
11616;SDS011;5864;52.998;9.068;2023-05-15T02:58:34;7.90;;;6.60;;
11616;SDS011;5864;52.998;9.068;2023-05-15T03:01:19;6.80;;;6.10;;
11616;SDS011;5864;52.998;9.068;2023-05-15T03:04:05;7.00;;;6.10;;
11616;SDS011;5864;52.998;9.068;2023-05-15T03:06:50;7.63;;;6.80;;
11616;SDS011;5864;52.998;9.068;2023-05-15T03:09:37;8.33;;;7.20;;
11616;SDS011;5864;52.998;9.068;2023-05-15T03:12:23;10.60;;;6.90;;
11616;SDS011;5864;52.998;9.068;2023-05-15T03:15:09;7.47;;;6.67;;
11616;SDS011;5864;52.998;9.068;2023-05-15T03:17:55;9.57;;;7.67;;
11616;SDS011;5864;52.998;9.068;2023-05-15T03:20:41;7.97;;;7.17;;
11616;SDS011;5864;52.998;9.068;2023-05-15T03:23:26;8.30;;;7.50;;
11616;SDS011;5864;52.998;9.068;2023-05-15T03:26:15;8.90;;;7.60;;
11616;SDS011;5864;52.998;9.068;2023-05-15T03:29:01;10.60;;;7.57;;
11616;SDS011;5864;52.998;9.068;2023-05-15T03:31:46;8.37;;;7.47;;
11616;SDS011;5864;52.998;9.068;2023-05-15T03:34:32;8.07;;;7.27;;
11616;SDS011;5864;52.998;9.068;2023-05-15T03:37:18;9.93;;;7.90;;
11616;SDS011;5864;52.998;9.068;2023-05-15T03:40:04;8.10;;;7.20;;
11616;SDS011;5864;52.998;9.068;2023-05-15T03:42:52;8.17;;;7.23;;
11616;SDS011;5864;52.998;9.068;2023-05-15T03:45:37;8.57;;;7.50;;
11616;SDS011;5864;52.998;9.068;2023-05-15T03:48:23;8.63;;;7.73;;
11616;SDS011;5864;52.998;9.068;2023-05-15T03:51:08;10.20;;;7.57;;
11616;SDS011;5864;52.998;9.068;2023-05-15T03:53:54;10.70;;;7.87;;
11616;SDS011;5864;52.998;9.068;2023-05-15T03:56:39;9.07;;;7.70;;
11616;SDS011;5864;52.998;9.068;2023-05-15T03:59:26;9.23;;;7.87;;
11616;SDS011;5864;52.998;9.068;2023-05-15T04:02:12;10.90;;;7.03;;
11616;SDS011;5864;52.998;9.068;2023-05-15T04:04:58;8.70;;;7.80;;
11616;SDS011;5864;52.998;9.068;2023-05-15T04:07:43;9.10;;;8.20;;
11616;SDS011;5864;52.998;9.068;2023-05-15T04:10:29;8.40;;;7.60;;
11616;SDS011;5864;52.998;9.068;2023-05-15T04:13:16;9.13;;;7.97;;
11616;SDS011;5864;52.998;9.068;2023-05-15T04:16:04;9.17;;;8.27;;
11616;SDS011;5864;52.998;9.068;2023-05-15T04:18:50;10.40;;;7.97;;
11616;SDS011;5864;52.998;9.068;2023-05-15T04:21:36;10.37;;;8.33;;
11616;SDS011;5864;52.998;9.068;2023-05-15T04:24:22;9.60;;;8.70;;
11616;SDS011;5864;52.998;9.068;2023-05-15T04:27:07;9.27;;;8.37;;
11616;SDS011;5864;52.998;9.068;2023-05-15T04:29:53;11.30;;;8.43;;
11616;SDS011;5864;52.998;9.068;2023-05-15T04:32:41;8.77;;;7.97;;
11616;SDS011;5864;52.998;9.068;2023-05-15T04:35:27;9.70;;;8.70;;
11616;SDS011;5864;52.998;9.068;2023-05-15T04:38:13;11.37;;;10.07;;
11616;SDS011;5864;52.998;9.068;2023-05-15T04:40:59;9.83;;;8.83;;
11616;SDS011;5864;52.998;9.068;2023-05-15T04:43:45;11.07;;;9.50;;
11616;SDS011;5864;52.998;9.068;2023-05-15T04:46:30;10.93;;;9.27;;
11616;SDS011;5864;52.998;9.068;2023-05-15T04:49:18;11.47;;;9.33;;
11616;SDS011;5864;52.998;9.068;2023-05-15T04:52:04;11.03;;;9.90;;
11616;SDS011;5864;52.998;9.068;2023-05-15T04:54:50;12.30;;;9.47;;
11616;SDS011;5864;52.998;9.068;2023-05-15T04:57:38;10.90;;;8.73;;
11616;SDS011;5864;52.998;9.068;2023-05-15T05:00:24;12.00;;;10.80;;
11616;SDS011;5864;52.998;9.068;2023-05-15T05:03:09;11.50;;;9.67;;
11616;SDS011;5864;52.998;9.068;2023-05-15T05:05:57;11.03;;;9.97;;
11616;SDS011;5864;52.998;9.068;2023-05-15T05:08:43;11.43;;;10.17;;
11616;SDS011;5864;52.998;9.068;2023-05-15T05:11:29;11.13;;;10.10;;
11616;SDS011;5864;52.998;9.068;2023-05-15T05:14:14;13.30;;;10.70;;
11616;SDS011;5864;52.998;9.068;2023-05-15T05:17:00;12.00;;;10.33;;
11616;SDS011;5864;52.998;9.068;2023-05-15T05:19:45;11.73;;;10.50;;
11616;SDS011;5864;52.998;9.068;2023-05-15T05:22:33;15.20;;;10.10;;
11616;SDS011;5864;52.998;9.068;2023-05-15T05:25:18;11.73;;;10.53;;
11616;SDS011;5864;52.998;9.068;2023-05-15T05:28:04;11.83;;;10.63;;
11616;SDS011;5864;52.998;9.068;2023-05-15T05:30:49;11.47;;;10.27;;
11616;SDS011;5864;52.998;9.068;2023-05-15T05:33:35;11.97;;;10.77;;
11616;SDS011;5864;52.998;9.068;2023-05-15T05:36:21;13.70;;;10.77;;
11616;SDS011;5864;52.998;9.068;2023-05-15T05:39:08;11.90;;;10.03;;
11616;SDS011;5864;52.998;9.068;2023-05-15T05:41:53;10.57;;;9.47;;
11616;SDS011;5864;52.998;9.068;2023-05-15T05:44:39;11.30;;;9.60;;
11616;SDS011;5864;52.998;9.068;2023-05-15T05:47:25;12.30;;;10.40;;
11616;SDS011;5864;52.998;9.068;2023-05-15T05:50:11;12.87;;;11.57;;
11616;SDS011;5864;52.998;9.068;2023-05-15T05:52:56;13.03;;;11.77;;
11616;SDS011;5864;52.998;9.068;2023-05-15T05:55:43;13.77;;;12.37;;
11616;SDS011;5864;52.998;9.068;2023-05-15T05:58:29;12.43;;;11.07;;
11616;SDS011;5864;52.998;9.068;2023-05-15T06:01:15;11.80;;;10.60;;
11616;SDS011;5864;52.998;9.068;2023-05-15T06:04:01;13.90;;;11.27;;
11616;SDS011;5864;52.998;9.068;2023-05-15T06:06:46;13.27;;;11.10;;
11616;SDS011;5864;52.998;9.068;2023-05-15T06:09:32;14.03;;;10.00;;
11616;SDS011;5864;52.998;9.068;2023-05-15T06:12:19;12.00;;;10.90;;
11616;SDS011;5864;52.998;9.068;2023-05-15T06:15:05;11.43;;;10.20;;
11616;SDS011;5864;52.998;9.068;2023-05-15T06:17:52;12.03;;;10.80;;
11616;SDS011;5864;52.998;9.068;2023-05-15T06:20:38;15.63;;;10.13;;
11616;SDS011;5864;52.998;9.068;2023-05-15T06:23:25;10.27;;;9.27;;
11616;SDS011;5864;52.998;9.068;2023-05-15T06:26:11;12.07;;;10.17;;
11616;SDS011;5864;52.998;9.068;2023-05-15T06:28:58;12.67;;;9.37;;
11616;SDS011;5864;52.998;9.068;2023-05-15T06:31:44;11.40;;;10.00;;
11616;SDS011;5864;52.998;9.068;2023-05-15T06:34:30;10.77;;;9.67;;
11616;SDS011;5864;52.998;9.068;2023-05-15T06:37:15;9.57;;;8.37;;
11616;SDS011;5864;52.998;9.068;2023-05-15T06:40:01;9.73;;;8.63;;
11616;SDS011;5864;52.998;9.068;2023-05-15T06:42:47;8.50;;;7.60;;
11616;SDS011;5864;52.998;9.068;2023-05-15T06:45:34;10.97;;;8.73;;
11616;SDS011;5864;52.998;9.068;2023-05-15T06:48:19;8.20;;;7.27;;
11616;SDS011;5864;52.998;9.068;2023-05-15T06:51:05;9.03;;;7.70;;
11616;SDS011;5864;52.998;9.068;2023-05-15T06:53:50;8.03;;;6.67;;
11616;SDS011;5864;52.998;9.068;2023-05-15T06:56:36;8.30;;;6.57;;
11616;SDS011;5864;52.998;9.068;2023-05-15T06:59:22;10.20;;;7.20;;
11616;SDS011;5864;52.998;9.068;2023-05-15T07:02:08;8.40;;;7.50;;
11616;SDS011;5864;52.998;9.068;2023-05-15T07:04:54;9.27;;;8.00;;
11616;SDS011;5864;52.998;9.068;2023-05-15T07:07:40;8.53;;;7.03;;
11616;SDS011;5864;52.998;9.068;2023-05-15T07:10:25;9.93;;;8.63;;
11616;SDS011;5864;52.998;9.068;2023-05-15T07:13:11;10.80;;;7.57;;
11616;SDS011;5864;52.998;9.068;2023-05-15T07:15:56;12.43;;;8.07;;
11616;SDS011;5864;52.998;9.068;2023-05-15T07:18:43;9.03;;;7.70;;
11616;SDS011;5864;52.998;9.068;2023-05-15T07:21:29;9.20;;;7.37;;
11616;SDS011;5864;52.998;9.068;2023-05-15T07:24:15;8.23;;;7.43;;
11616;SDS011;5864;52.998;9.068;2023-05-15T07:27:01;19.23;;;10.17;;
11616;SDS011;5864;52.998;9.068;2023-05-15T07:29:47;12.37;;;8.17;;
11616;SDS011;5864;52.998;9.068;2023-05-15T07:32:32;10.87;;;7.87;;
11616;SDS011;5864;52.998;9.068;2023-05-15T07:35:19;9.73;;;7.83;;
11616;SDS011;5864;52.998;9.068;2023-05-15T07:38:05;11.87;;;9.80;;
11616;SDS011;5864;52.998;9.068;2023-05-15T07:40:50;9.33;;;8.27;;
11616;SDS011;5864;52.998;9.068;2023-05-15T07:43:36;8.43;;;7.53;;
11616;SDS011;5864;52.998;9.068;2023-05-15T07:46:21;11.87;;;8.63;;
11616;SDS011;5864;52.998;9.068;2023-05-15T07:49:07;10.00;;;8.90;;
11616;SDS011;5864;52.998;9.068;2023-05-15T07:51:54;9.33;;;7.67;;
11616;SDS011;5864;52.998;9.068;2023-05-15T07:54:39;10.77;;;8.30;;
11616;SDS011;5864;52.998;9.068;2023-05-15T07:57:25;10.73;;;8.77;;
11616;SDS011;5864;52.998;9.068;2023-05-15T08:00:11;23.53;;;9.60;;
11616;SDS011;5864;52.998;9.068;2023-05-15T08:02:58;10.43;;;7.73;;
11616;SDS011;5864;52.998;9.068;2023-05-15T08:05:43;23.80;;;9.83;;
11616;SDS011;5864;52.998;9.068;2023-05-15T08:08:31;10.47;;;7.83;;
11616;SDS011;5864;52.998;9.068;2023-05-15T08:11:17;11.57;;;7.90;;
11616;SDS011;5864;52.998;9.068;2023-05-15T08:14:02;10.40;;;8.30;;
11616;SDS011;5864;52.998;9.068;2023-05-15T08:16:48;8.67;;;7.23;;
11616;SDS011;5864;52.998;9.068;2023-05-15T08:19:34;13.63;;;9.43;;
11616;SDS011;5864;52.998;9.068;2023-05-15T08:22:19;9.37;;;8.43;;
11616;SDS011;5864;52.998;9.068;2023-05-15T08:25:07;11.70;;;8.50;;
11616;SDS011;5864;52.998;9.068;2023-05-15T08:27:53;8.73;;;7.93;;
11616;SDS011;5864;52.998;9.068;2023-05-15T08:30:39;10.83;;;9.60;;
11616;SDS011;5864;52.998;9.068;2023-05-15T08:33:25;11.30;;;8.77;;
11616;SDS011;5864;52.998;9.068;2023-05-15T08:36:10;11.10;;;10.00;;
11616;SDS011;5864;52.998;9.068;2023-05-15T08:38:57;12.80;;;9.93;;
11616;SDS011;5864;52.998;9.068;2023-05-15T08:41:45;10.90;;;9.83;;
11616;SDS011;5864;52.998;9.068;2023-05-15T08:44:35;10.50;;;9.40;;
11616;SDS011;5864;52.998;9.068;2023-05-15T08:47:22;12.53;;;11.23;;
11616;SDS011;5864;52.998;9.068;2023-05-15T08:50:11;11.00;;;9.93;;
11616;SDS011;5864;52.998;9.068;2023-05-15T08:52:58;11.50;;;10.40;;
11616;SDS011;5864;52.998;9.068;2023-05-15T08:55:44;13.40;;;12.00;;
11616;SDS011;5864;52.998;9.068;2023-05-15T08:58:31;13.20;;;11.93;;
11616;SDS011;5864;52.998;9.068;2023-05-15T09:01:18;13.87;;;12.43;;
11616;SDS011;5864;52.998;9.068;2023-05-15T09:04:03;15.13;;;13.13;;
11616;SDS011;5864;52.998;9.068;2023-05-15T09:06:49;12.27;;;11.00;;
11616;SDS011;5864;52.998;9.068;2023-05-15T09:09:34;17.30;;;15.07;;
11616;SDS011;5864;52.998;9.068;2023-05-15T09:12:20;14.43;;;11.93;;
11616;SDS011;5864;52.998;9.068;2023-05-15T09:15:11;14.90;;;11.30;;
11616;SDS011;5864;52.998;9.068;2023-05-15T09:18:00;13.60;;;12.20;;
11616;SDS011;5864;52.998;9.068;2023-05-15T09:20:45;12.37;;;11.00;;
11616;SDS011;5864;52.998;9.068;2023-05-15T09:23:31;14.73;;;11.93;;
11616;SDS011;5864;52.998;9.068;2023-05-15T09:26:16;11.43;;;10.33;;
11616;SDS011;5864;52.998;9.068;2023-05-15T09:29:02;10.73;;;9.30;;
11616;SDS011;5864;52.998;9.068;2023-05-15T09:31:50;12.40;;;10.37;;
11616;SDS011;5864;52.998;9.068;2023-05-15T09:34:36;20.13;;;11.53;;
11616;SDS011;5864;52.998;9.068;2023-05-15T09:37:29;13.13;;;11.50;;
11616;SDS011;5864;52.998;9.068;2023-05-15T09:40:16;13.83;;;12.10;;
11616;SDS011;5864;52.998;9.068;2023-05-15T09:43:03;15.10;;;11.93;;
11616;SDS011;5864;52.998;9.068;2023-05-15T09:45:49;12.10;;;10.77;;
11616;SDS011;5864;52.998;9.068;2023-05-15T09:48:37;10.47;;;9.33;;
11616;SDS011;5864;52.998;9.068;2023-05-15T09:51:22;11.07;;;9.97;;
11616;SDS011;5864;52.998;9.068;2023-05-15T09:54:12;12.17;;;10.97;;
11616;SDS011;5864;52.998;9.068;2023-05-15T09:57:06;14.40;;;11.53;;
11616;SDS011;5864;52.998;9.068;2023-05-15T09:59:52;12.10;;;9.87;;
11616;SDS011;5864;52.998;9.068;2023-05-15T10:02:38;12.60;;;10.43;;
11616;SDS011;5864;52.998;9.068;2023-05-15T10:05:26;11.07;;;9.97;;
11616;SDS011;5864;52.998;9.068;2023-05-15T10:08:13;10.50;;;9.27;;
11616;SDS011;5864;52.998;9.068;2023-05-15T10:10:58;12.37;;;9.43;;
11616;SDS011;5864;52.998;9.068;2023-05-15T10:13:46;9.67;;;8.77;;
11616;SDS011;5864;52.998;9.068;2023-05-15T10:16:32;11.30;;;9.87;;
11616;SDS011;5864;52.998;9.068;2023-05-15T10:19:18;9.27;;;8.07;;
11616;SDS011;5864;52.998;9.068;2023-05-15T10:22:10;8.93;;;8.13;;
11616;SDS011;5864;52.998;9.068;2023-05-15T10:24:59;8.10;;;7.30;;
11616;SDS011;5864;52.998;9.068;2023-05-15T10:27:47;10.00;;;9.00;;
11616;SDS011;5864;52.998;9.068;2023-05-15T10:30:35;9.63;;;8.63;;
11616;SDS011;5864;52.998;9.068;2023-05-15T10:33:21;9.50;;;8.60;;
11616;SDS011;5864;52.998;9.068;2023-05-15T10:36:07;10.40;;;9.10;;
11616;SDS011;5864;52.998;9.068;2023-05-15T10:38:55;12.03;;;9.27;;
11616;SDS011;5864;52.998;9.068;2023-05-15T10:41:42;10.50;;;8.57;;
11616;SDS011;5864;52.998;9.068;2023-05-15T10:44:29;10.03;;;8.00;;
11616;SDS011;5864;52.998;9.068;2023-05-15T10:47:15;7.77;;;6.07;;
11616;SDS011;5864;52.998;9.068;2023-05-15T10:50:01;8.50;;;7.53;;
11616;SDS011;5864;52.998;9.068;2023-05-15T10:52:49;12.70;;;8.13;;
11616;SDS011;5864;52.998;9.068;2023-05-15T10:55:37;8.33;;;7.53;;
11616;SDS011;5864;52.998;9.068;2023-05-15T10:58:23;10.33;;;6.50;;
11616;SDS011;5864;52.998;9.068;2023-05-15T11:01:18;9.77;;;7.20;;
11616;SDS011;5864;52.998;9.068;2023-05-15T11:04:10;10.17;;;6.80;;
11616;SDS011;5864;52.998;9.068;2023-05-15T11:07:10;9.13;;;6.40;;
11616;SDS011;5864;52.998;9.068;2023-05-15T11:09:57;7.43;;;6.30;;
11616;SDS011;5864;52.998;9.068;2023-05-15T11:12:56;10.93;;;8.13;;
11616;SDS011;5864;52.998;9.068;2023-05-15T11:15:43;8.87;;;7.93;;
11616;SDS011;5864;52.998;9.068;2023-05-15T11:18:29;15.23;;;9.00;;
11616;SDS011;5864;52.998;9.068;2023-05-15T11:21:15;11.20;;;10.10;;
11616;SDS011;5864;52.998;9.068;2023-05-15T11:24:04;12.50;;;10.80;;
11616;SDS011;5864;52.998;9.068;2023-05-15T11:26:51;10.73;;;9.27;;
11616;SDS011;5864;52.998;9.068;2023-05-15T11:32:53;10.47;;;9.20;;
11616;SDS011;5864;52.998;9.068;2023-05-15T11:35:41;11.47;;;9.30;;
11616;SDS011;5864;52.998;9.068;2023-05-15T11:38:28;11.70;;;9.80;;
11616;SDS011;5864;52.998;9.068;2023-05-15T11:41:22;10.30;;;9.20;;
11616;SDS011;5864;52.998;9.068;2023-05-15T11:44:18;10.00;;;9.00;;
11616;SDS011;5864;52.998;9.068;2023-05-15T11:47:09;9.53;;;8.53;;
11616;SDS011;5864;52.998;9.068;2023-05-15T11:49:55;9.37;;;8.37;;
11616;SDS011;5864;52.998;9.068;2023-05-15T11:52:41;12.43;;;8.17;;
11616;SDS011;5864;52.998;9.068;2023-05-15T11:55:27;8.00;;;6.13;;
11616;SDS011;5864;52.998;9.068;2023-05-15T11:58:15;11.80;;;8.43;;
11616;SDS011;5864;52.998;9.068;2023-05-15T12:01:02;16.10;;;7.63;;
11616;SDS011;5864;52.998;9.068;2023-05-15T12:03:49;9.57;;;7.20;;
11616;SDS011;5864;52.998;9.068;2023-05-15T12:06:36;9.87;;;7.47;;
11616;SDS011;5864;52.998;9.068;2023-05-15T12:09:22;7.70;;;7.00;;
11616;SDS011;5864;52.998;9.068;2023-05-15T12:12:11;7.93;;;7.13;;
11616;SDS011;5864;52.998;9.068;2023-05-15T12:14:57;8.13;;;7.30;;
11616;SDS011;5864;52.998;9.068;2023-05-15T12:17:44;8.10;;;7.03;;
11616;SDS011;5864;52.998;9.068;2023-05-15T12:20:32;8.50;;;7.33;;
11616;SDS011;5864;52.998;9.068;2023-05-15T12:23:19;8.20;;;6.40;;
11616;SDS011;5864;52.998;9.068;2023-05-15T12:26:06;8.83;;;6.00;;
11616;SDS011;5864;52.998;9.068;2023-05-15T12:28:51;6.33;;;5.73;;
11616;SDS011;5864;52.998;9.068;2023-05-15T12:31:38;7.10;;;6.33;;
11616;SDS011;5864;52.998;9.068;2023-05-15T12:34:24;7.57;;;5.40;;
11616;SDS011;5864;52.998;9.068;2023-05-15T12:37:12;7.23;;;5.60;;
11616;SDS011;5864;52.998;9.068;2023-05-15T12:39:58;6.53;;;5.60;;
11616;SDS011;5864;52.998;9.068;2023-05-15T12:42:45;7.07;;;4.70;;
11616;SDS011;5864;52.998;9.068;2023-05-15T12:45:36;6.53;;;5.40;;
11616;SDS011;5864;52.998;9.068;2023-05-15T12:48:27;6.63;;;4.77;;
11616;SDS011;5864;52.998;9.068;2023-05-15T12:51:15;6.87;;;5.00;;
11616;SDS011;5864;52.998;9.068;2023-05-15T12:54:02;7.43;;;5.80;;
11616;SDS011;5864;52.998;9.068;2023-05-15T12:56:48;7.47;;;5.17;;
11616;SDS011;5864;52.998;9.068;2023-05-15T12:59:34;8.07;;;5.03;;
11616;SDS011;5864;52.998;9.068;2023-05-15T13:02:19;9.00;;;5.77;;
11616;SDS011;5864;52.998;9.068;2023-05-15T13:05:06;7.00;;;5.57;;
11616;SDS011;5864;52.998;9.068;2023-05-15T13:07:52;5.67;;;4.30;;
11616;SDS011;5864;52.998;9.068;2023-05-15T13:10:39;5.73;;;4.50;;
11616;SDS011;5864;52.998;9.068;2023-05-15T13:13:39;4.30;;;3.90;;
11616;SDS011;5864;52.998;9.068;2023-05-15T13:16:26;4.27;;;3.83;;
11616;SDS011;5864;52.998;9.068;2023-05-15T13:19:12;5.87;;;4.33;;
11616;SDS011;5864;52.998;9.068;2023-05-15T13:21:58;4.77;;;4.03;;
11616;SDS011;5864;52.998;9.068;2023-05-15T13:24:44;10.03;;;5.40;;
11616;SDS011;5864;52.998;9.068;2023-05-15T13:27:32;6.20;;;4.97;;
11616;SDS011;5864;52.998;9.068;2023-05-15T13:30:17;7.07;;;5.37;;
11616;SDS011;5864;52.998;9.068;2023-05-15T13:33:03;7.73;;;5.20;;
11616;SDS011;5864;52.998;9.068;2023-05-15T13:35:49;6.87;;;6.17;;
11616;SDS011;5864;52.998;9.068;2023-05-15T13:38:35;8.13;;;6.27;;
11616;SDS011;5864;52.998;9.068;2023-05-15T13:41:21;6.30;;;5.70;;
11616;SDS011;5864;52.998;9.068;2023-05-15T13:44:08;6.20;;;5.60;;
11616;SDS011;5864;52.998;9.068;2023-05-15T13:46:53;6.43;;;5.83;;
11616;SDS011;5864;52.998;9.068;2023-05-15T13:49:38;7.03;;;6.20;;
11616;SDS011;5864;52.998;9.068;2023-05-15T13:52:24;7.13;;;6.43;;
11616;SDS011;5864;52.998;9.068;2023-05-15T13:55:10;7.27;;;6.57;;
11616;SDS011;5864;52.998;9.068;2023-05-15T13:57:56;8.10;;;7.30;;
11616;SDS011;5864;52.998;9.068;2023-05-15T14:00:43;7.33;;;6.63;;
11616;SDS011;5864;52.998;9.068;2023-05-15T14:03:29;7.03;;;6.33;;
11616;SDS011;5864;52.998;9.068;2023-05-15T14:06:15;6.93;;;6.23;;
11616;SDS011;5864;52.998;9.068;2023-05-15T14:09:00;7.33;;;6.23;;
11616;SDS011;5864;52.998;9.068;2023-05-15T14:11:46;6.90;;;5.60;;
11616;SDS011;5864;52.998;9.068;2023-05-15T14:14:31;8.03;;;5.77;;
11616;SDS011;5864;52.998;9.068;2023-05-15T14:17:18;6.40;;;5.10;;
11616;SDS011;5864;52.998;9.068;2023-05-15T14:20:06;6.87;;;5.47;;
11616;SDS011;5864;52.998;9.068;2023-05-15T14:22:52;7.30;;;5.43;;
11616;SDS011;5864;52.998;9.068;2023-05-15T14:25:39;8.43;;;5.67;;
11616;SDS011;5864;52.998;9.068;2023-05-15T14:28:25;5.43;;;4.87;;
11616;SDS011;5864;52.998;9.068;2023-05-15T14:31:11;8.13;;;5.20;;
11616;SDS011;5864;52.998;9.068;2023-05-15T14:33:57;5.70;;;4.43;;
11616;SDS011;5864;52.998;9.068;2023-05-15T14:36:44;8.37;;;4.77;;
11616;SDS011;5864;52.998;9.068;2023-05-15T14:39:30;4.87;;;4.37;;
11616;SDS011;5864;52.998;9.068;2023-05-15T14:42:16;4.73;;;4.23;;
11616;SDS011;5864;52.998;9.068;2023-05-15T14:45:02;7.30;;;4.90;;
11616;SDS011;5864;52.998;9.068;2023-05-15T14:47:48;4.70;;;3.90;;
11616;SDS011;5864;52.998;9.068;2023-05-15T14:50:36;6.57;;;4.13;;
11616;SDS011;5864;52.998;9.068;2023-05-15T14:53:21;5.73;;;4.13;;
11616;SDS011;5864;52.998;9.068;2023-05-15T14:56:07;7.00;;;4.90;;
11616;SDS011;5864;52.998;9.068;2023-05-15T14:58:53;5.47;;;4.60;;
11616;SDS011;5864;52.998;9.068;2023-05-15T15:01:38;5.83;;;4.37;;
11616;SDS011;5864;52.998;9.068;2023-05-15T15:04:24;6.60;;;4.50;;
11616;SDS011;5864;52.998;9.068;2023-05-15T15:07:13;6.13;;;5.30;;
11616;SDS011;5864;52.998;9.068;2023-05-15T15:09:58;5.63;;;5.07;;
11616;SDS011;5864;52.998;9.068;2023-05-15T15:12:44;7.23;;;5.43;;
11616;SDS011;5864;52.998;9.068;2023-05-15T15:15:30;7.03;;;4.80;;
11616;SDS011;5864;52.998;9.068;2023-05-15T15:18:16;5.57;;;4.60;;
11616;SDS011;5864;52.998;9.068;2023-05-15T15:21:03;6.67;;;5.63;;
11616;SDS011;5864;52.998;9.068;2023-05-15T15:23:50;8.30;;;5.53;;
11616;SDS011;5864;52.998;9.068;2023-05-15T15:26:36;5.60;;;5.07;;
11616;SDS011;5864;52.998;9.068;2023-05-15T15:29:22;8.27;;;5.07;;
11616;SDS011;5864;52.998;9.068;2023-05-15T15:32:08;9.00;;;5.47;;
11616;SDS011;5864;52.998;9.068;2023-05-15T15:34:53;8.13;;;5.20;;
11616;SDS011;5864;52.998;9.068;2023-05-15T15:37:40;10.00;;;6.10;;
11616;SDS011;5864;52.998;9.068;2023-05-15T15:40:27;6.20;;;5.70;;
11616;SDS011;5864;52.998;9.068;2023-05-15T15:43:12;7.30;;;6.60;;
11616;SDS011;5864;52.998;9.068;2023-05-15T15:45:58;7.67;;;6.80;;
11616;SDS011;5864;52.998;9.068;2023-05-15T15:48:43;9.50;;;6.03;;
11616;SDS011;5864;52.998;9.068;2023-05-15T15:51:29;8.33;;;6.00;;
11616;SDS011;5864;52.998;9.068;2023-05-15T15:54:15;9.47;;;5.37;;
11616;SDS011;5864;52.998;9.068;2023-05-15T15:57:02;6.17;;;4.93;;
11616;SDS011;5864;52.998;9.068;2023-05-15T15:59:48;5.40;;;4.90;;
11616;SDS011;5864;52.998;9.068;2023-05-15T16:02:33;7.23;;;4.70;;
11616;SDS011;5864;52.998;9.068;2023-05-15T16:05:18;5.07;;;4.30;;
11616;SDS011;5864;52.998;9.068;2023-05-15T16:08:04;6.73;;;4.10;;
11616;SDS011;5864;52.998;9.068;2023-05-15T16:10:51;6.10;;;4.27;;
11616;SDS011;5864;52.998;9.068;2023-05-15T16:13:38;6.17;;;4.80;;
11616;SDS011;5864;52.998;9.068;2023-05-15T16:16:24;10.17;;;4.10;;
11616;SDS011;5864;52.998;9.068;2023-05-15T16:19:10;7.53;;;5.50;;
11616;SDS011;5864;52.998;9.068;2023-05-15T16:21:55;6.13;;;5.17;;
11616;SDS011;5864;52.998;9.068;2023-05-15T16:24:41;5.80;;;5.30;;
11616;SDS011;5864;52.998;9.068;2023-05-15T16:27:26;6.70;;;6.00;;
11616;SDS011;5864;52.998;9.068;2023-05-15T16:30:14;7.60;;;6.00;;
11616;SDS011;5864;52.998;9.068;2023-05-15T16:32:59;5.47;;;4.97;;
11616;SDS011;5864;52.998;9.068;2023-05-15T16:35:45;7.57;;;5.47;;
11616;SDS011;5864;52.998;9.068;2023-05-15T16:38:30;9.73;;;5.50;;
11616;SDS011;5864;52.998;9.068;2023-05-15T16:41:16;5.90;;;5.03;;
11616;SDS011;5864;52.998;9.068;2023-05-15T16:44:01;6.67;;;5.13;;
11616;SDS011;5864;52.998;9.068;2023-05-15T16:46:50;9.03;;;5.47;;
11616;SDS011;5864;52.998;9.068;2023-05-15T16:49:35;6.63;;;4.47;;
11616;SDS011;5864;52.998;9.068;2023-05-15T16:52:21;7.37;;;5.03;;
11616;SDS011;5864;52.998;9.068;2023-05-15T16:55:07;5.47;;;4.80;;
11616;SDS011;5864;52.998;9.068;2023-05-15T16:57:52;5.60;;;4.60;;
11616;SDS011;5864;52.998;9.068;2023-05-15T17:00:38;5.67;;;5.00;;